createdAt,value
2019-01-21T00:00:53.211Z,-6.11
2019-01-21T00:02:54.575Z,-6.16
2019-01-21T00:04:55.700Z,-6.20
2019-01-21T00:06:58.754Z,-6.08
2019-01-21T00:11:32.226Z,-6.52
2019-01-21T00:13:33.327Z,-6.37
2019-01-21T00:15:34.226Z,-6.08
2019-01-21T00:17:35.301Z,-6.00
2019-01-21T00:19:36.480Z,-5.87
2019-01-21T00:22:04.097Z,-5.95
2019-01-21T00:26:18.375Z,-5.94
2019-01-21T00:28:20.193Z,-6.30
2019-01-21T00:30:49.058Z,-6.22
2019-01-21T00:41:21.338Z,-6.50
2019-01-21T00:43:22.862Z,-6.22
2019-01-21T00:45:24.320Z,-6.36
2019-01-21T00:47:55.774Z,-6.52
2019-01-21T00:49:52.885Z,-6.46
2019-01-21T00:51:54.174Z,-6.51
2019-01-21T00:53:55.007Z,-6.41
2019-01-21T00:55:59.266Z,-6.27
2019-01-21T00:58:00.170Z,-6.23
2019-01-21T01:00:01.116Z,-6.06
2019-01-21T01:02:06.603Z,-6.28
2019-01-21T01:04:11.299Z,-6.23
2019-01-21T01:06:12.184Z,-6.29
2019-01-21T01:08:13.099Z,-6.26
2019-01-21T01:10:15.078Z,-6.22
2019-01-21T01:12:16.830Z,-6.40
2019-01-21T01:14:17.875Z,-6.48
2019-01-21T01:16:18.726Z,-6.42
2019-01-21T01:18:20.428Z,-6.37
2019-01-21T01:20:21.266Z,-6.40
2019-01-21T01:22:24.613Z,-6.27
2019-01-21T01:24:25.484Z,-6.25
2019-01-21T01:26:26.092Z,-6.24
2019-01-21T01:28:27.011Z,-6.29
2019-01-21T01:30:27.874Z,-6.33
2019-01-21T01:32:28.480Z,-6.33
2019-01-21T01:34:31.515Z,-6.23
2019-01-21T01:36:32.738Z,-6.31
2019-01-21T01:38:34.072Z,-6.36
2019-01-21T01:40:39.428Z,-6.44
2019-01-21T01:42:44.935Z,-6.56
2019-01-21T01:44:49.482Z,-6.65
2019-01-21T01:46:54.361Z,-6.48
2019-01-21T01:48:55.273Z,-6.54
2019-01-21T01:50:58.411Z,-6.36
2019-01-21T01:52:59.348Z,-6.26
2019-01-21T01:55:04.732Z,-6.37
2019-01-21T01:57:05.585Z,-6.32
2019-01-21T01:59:07.186Z,-6.52
2019-01-21T02:01:08.083Z,-6.50
2019-01-21T02:03:08.921Z,-6.80
2019-01-21T02:05:09.629Z,-6.97
2019-01-21T02:07:10.529Z,-6.84
2019-01-21T02:09:11.513Z,-6.67
2019-01-21T02:11:12.640Z,-6.62
2019-01-21T02:13:13.972Z,-6.53
2019-01-21T02:15:15.121Z,-6.61
2019-01-21T02:17:16.053Z,-6.57
2019-01-21T02:19:20.810Z,-6.75
2019-01-21T02:21:25.541Z,-6.86
2019-01-21T02:23:29.594Z,-6.86
2019-01-21T02:25:39.916Z,-6.85
2019-01-21T02:28:03.647Z,-6.85
2019-01-21T02:30:11.592Z,-6.82
2019-01-21T02:32:18.769Z,-6.99
2019-01-21T02:34:43.301Z,-7.00
2019-01-21T02:37:09.350Z,-6.96
2019-01-21T02:39:23.921Z,-6.96
2019-01-21T02:41:29.063Z,-7.02
2019-01-21T02:43:36.757Z,-6.97
2019-01-21T02:45:47.140Z,-6.74
2019-01-21T02:48:00.254Z,-6.55
2019-01-21T02:50:19.203Z,-6.55
2019-01-21T02:52:58.453Z,-6.71
2019-01-21T02:55:12.564Z,-6.76
2019-01-21T02:57:34.176Z,-6.64
2019-01-21T02:59:54.027Z,-6.91
2019-01-21T03:07:45.640Z,-6.90
2019-01-21T03:10:03.089Z,-6.77
2019-01-21T03:12:23.357Z,-7.97
2019-01-21T03:14:37.203Z,-7.97
2019-01-21T03:17:04.923Z,-7.82
2019-01-21T03:19:24.113Z,-7.23
2019-01-21T03:21:45.217Z,-7.26
2019-01-21T03:24:19.262Z,-7.26
2019-01-21T03:26:41.529Z,-7.16
2019-01-21T03:29:22.536Z,-7.16
2019-01-21T03:34:03.939Z,-7.12
2019-01-21T03:36:14.793Z,-7.12
2019-01-21T03:38:25.297Z,-7.33
2019-01-21T03:40:46.688Z,-7.12
2019-01-21T03:43:03.221Z,-7.02
2019-01-21T03:45:23.684Z,-7.22
2019-01-21T03:47:42.659Z,-7.22
2019-01-21T03:49:59.623Z,-7.48
2019-01-21T03:52:19.804Z,-7.48
2019-01-21T03:54:21.939Z,-7.28
2019-01-21T03:56:36.543Z,-7.22
2019-01-21T03:59:03.625Z,-7.21
2019-01-21T04:01:22.677Z,-7.18
2019-01-21T04:03:45.297Z,-7.08
2019-01-21T04:05:49.798Z,-7.07
2019-01-21T04:08:19.706Z,-7.00
2019-01-21T04:10:27.830Z,-7.18
2019-01-21T04:12:42.659Z,-7.18
2019-01-21T04:20:28.933Z,-7.70
2019-01-21T04:22:43.837Z,-7.30
2019-01-21T04:24:51.148Z,-7.31
2019-01-21T04:26:58.629Z,-7.41
2019-01-21T04:29:09.407Z,-7.20
2019-01-21T04:31:16.817Z,-7.58
2019-01-21T04:33:31.218Z,-7.59
2019-01-21T04:35:35.778Z,-7.55
2019-01-21T04:38:02.935Z,-7.72
2019-01-21T04:40:24.857Z,-7.89
2019-01-21T04:43:08.062Z,-8.02
2019-01-21T04:45:29.766Z,-8.03
2019-01-21T04:48:10.433Z,-8.05
2019-01-21T04:53:09.894Z,-7.56
2019-01-21T04:55:53.367Z,-7.36
2019-01-21T04:58:13.075Z,-7.21
2019-01-21T05:03:11.433Z,-7.44
2019-01-21T05:05:48.423Z,-7.35
2019-01-21T05:08:09.734Z,-7.40
2019-01-21T05:10:17.661Z,-7.28
2019-01-21T05:12:25.673Z,-7.30
2019-01-21T05:15:00.811Z,-7.48
2019-01-21T05:17:20.684Z,-7.99
2019-01-21T05:19:48.438Z,-7.90
2019-01-21T05:22:11.059Z,-7.49
2019-01-21T05:24:33.497Z,-7.30
2019-01-21T05:26:47.719Z,-7.38
2019-01-21T05:29:08.364Z,-7.37
2019-01-21T05:31:20.767Z,-7.67
2019-01-21T05:33:43.835Z,-7.68
2019-01-21T05:36:06.509Z,-7.58
2019-01-21T05:41:24.460Z,-7.72
2019-01-21T05:43:38.417Z,-7.63
2019-01-21T05:46:11.721Z,-7.58
2019-01-21T05:50:56.656Z,-7.58
2019-01-21T05:53:48.135Z,-7.45
2019-01-21T05:56:23.497Z,-7.38
2019-01-21T05:58:59.471Z,-7.35
2019-01-21T06:01:10.857Z,-7.51
2019-01-21T06:03:25.835Z,-7.51
2019-01-21T06:05:40.185Z,-7.42
2019-01-21T06:07:51.322Z,-7.50
2019-01-21T06:10:19.102Z,-7.89
2019-01-21T06:12:23.933Z,-8.13
2019-01-21T06:14:37.619Z,-7.94
2019-01-21T06:16:57.547Z,-7.85
2019-01-21T06:19:09.436Z,-7.86
2019-01-21T06:22:11.297Z,-7.97
2019-01-21T06:24:49.342Z,-7.98
2019-01-21T06:27:27.418Z,-7.91
2019-01-21T06:32:22.906Z,-7.72
2019-01-21T06:35:24.636Z,-7.76
2019-01-21T06:36:56.996Z,-7.72
2019-01-21T06:39:13.531Z,-7.69
2019-01-21T06:41:34.813Z,-7.94
2019-01-21T06:43:40.715Z,-8.07
2019-01-21T06:46:04.476Z,-7.83
2019-01-21T06:48:23.578Z,-7.70
2019-01-21T06:51:00.357Z,-7.69
2019-01-21T06:53:14.375Z,-8.08
2019-01-21T06:55:25.478Z,-7.93
2019-01-21T06:57:33.057Z,-7.96
2019-01-21T07:00:00.052Z,-7.84
2019-01-21T07:05:03.371Z,-7.85
2019-01-21T07:07:08.079Z,-7.86
2019-01-21T07:09:24.293Z,-8.06
2019-01-21T07:11:45.465Z,-8.02
2019-01-21T07:14:06.814Z,-8.12
2019-01-21T07:16:17.360Z,-8.13
2019-01-21T07:18:28.900Z,-8.16
2019-01-21T07:20:54.719Z,-8.04
2019-01-21T07:23:02.155Z,-7.91
2019-01-21T07:25:31.094Z,-7.99
2019-01-21T07:27:41.537Z,-7.99
2019-01-21T07:30:02.041Z,-7.85
2019-01-21T07:32:22.885Z,-7.70
2019-01-21T07:34:45.967Z,-7.65
2019-01-21T07:37:18.297Z,-7.76
2019-01-21T07:39:41.170Z,-7.54
2019-01-21T07:41:58.047Z,-7.99
2019-01-21T07:44:08.452Z,-8.26
2019-01-21T07:46:16.094Z,-8.18
2019-01-21T07:48:26.525Z,-8.19
2019-01-21T07:50:43.691Z,-8.01
2019-01-21T07:53:04.792Z,-8.03
2019-01-21T07:55:38.062Z,-8.31
2019-01-21T07:57:45.779Z,-8.67
2019-01-21T08:00:06.921Z,-8.72
2019-01-21T08:02:35.818Z,-8.78
2019-01-21T08:05:01.861Z,-8.67
2019-01-21T08:07:15.356Z,-8.16
2019-01-21T08:09:25.492Z,-8.06
2019-01-21T08:11:42.347Z,-7.80
2019-01-21T08:13:49.980Z,-7.79
2019-01-21T08:16:10.954Z,-7.91
2019-01-21T08:18:51.809Z,-7.89
2019-01-21T08:21:08.187Z,-7.52
2019-01-21T08:23:38.688Z,-7.13
2019-01-21T08:25:53.440Z,-7.07
2019-01-21T08:28:07.073Z,-7.05
2019-01-21T08:30:11.736Z,-6.42
2019-01-21T08:32:39.327Z,-6.18
2019-01-21T08:35:13.511Z,-6.18
2019-01-21T08:37:34.094Z,-5.77
2019-01-21T08:39:50.881Z,-5.77
2019-01-21T08:42:07.713Z,-5.67
2019-01-21T08:44:17.045Z,-5.59
2019-01-21T08:46:33.843Z,-5.73
2019-01-21T08:48:58.497Z,-5.65
2019-01-21T08:51:06.444Z,-5.47
2019-01-21T08:53:13.864Z,-5.74
2019-01-21T08:55:33.466Z,-5.64
2019-01-21T08:58:04.612Z,-5.48
2019-01-21T09:00:32.372Z,-5.34
2019-01-21T09:02:51.587Z,-5.33
2019-01-21T09:04:58.894Z,-5.53
2019-01-21T09:07:15.134Z,-5.25
2019-01-21T09:09:29.106Z,-5.34
2019-01-21T09:11:42.332Z,-5.37
2019-01-21T09:13:57.114Z,-5.09
2019-01-21T09:16:03.501Z,-5.07
2019-01-21T09:18:15.365Z,-5.10
2019-01-21T09:20:26.081Z,-5.33
2019-01-21T09:22:36.461Z,-5.24
2019-01-21T09:24:46.673Z,-5.56
2019-01-21T09:27:04.123Z,-5.80
2019-01-21T09:29:25.066Z,-5.88
2019-01-21T09:31:32.538Z,-5.67
2019-01-21T09:33:45.820Z,-5.59
2019-01-21T09:35:53.809Z,-5.22
2019-01-21T09:38:22.933Z,-5.38
2019-01-21T09:40:42.409Z,-5.01
2019-01-21T09:43:05.076Z,-5.34
2019-01-21T09:45:27.693Z,-5.18
2019-01-21T09:47:28.442Z,-4.81
2019-01-21T09:49:28.852Z,-5.39
2019-01-21T09:51:29.642Z,-5.58
2019-01-21T09:53:30.918Z,-5.04
2019-01-21T09:55:31.593Z,-4.95
2019-01-21T09:57:34.430Z,-5.21
2019-01-21T09:59:37.117Z,-5.77
2019-01-21T10:01:40.193Z,-5.30
2019-01-21T10:03:43.496Z,-5.15
2019-01-21T10:05:51.349Z,-5.39
2019-01-21T10:08:05.427Z,-5.27
2019-01-21T10:10:28.635Z,-5.17
2019-01-21T10:13:06.728Z,-5.42
2019-01-21T10:15:34.379Z,-5.26
2019-01-21T10:17:42.213Z,-4.87
2019-01-21T10:19:50.748Z,-5.03
2019-01-21T10:22:13.400Z,-4.32
2019-01-21T10:24:42.135Z,-4.38
2019-01-21T10:26:58.959Z,-4.87
2019-01-21T10:29:10.485Z,-4.77
2019-01-21T10:31:15.193Z,-5.12
2019-01-21T10:33:34.977Z,-4.67
2019-01-21T10:35:59.845Z,-4.61
2019-01-21T10:38:21.512Z,-4.90
2019-01-21T10:40:44.611Z,-4.85
2019-01-21T10:43:09.499Z,-4.69
2019-01-21T10:45:19.688Z,-4.15
2019-01-21T10:47:28.618Z,-3.85
2019-01-21T10:49:36.282Z,-3.91
2019-01-21T10:52:03.718Z,-3.92
2019-01-21T10:54:08.422Z,-4.05
2019-01-21T10:56:22.004Z,-3.84
2019-01-21T10:58:40.196Z,-3.87
2019-01-21T11:01:19.933Z,-3.66
2019-01-21T11:03:30.249Z,-3.69
2019-01-21T11:05:52.256Z,-3.52
2019-01-21T11:08:02.551Z,-3.46
2019-01-21T11:10:16.246Z,-3.74
2019-01-21T11:12:41.785Z,-4.00
2019-01-21T11:14:58.261Z,-3.85
2019-01-21T11:17:08.435Z,-4.18
2019-01-21T11:19:22.221Z,-3.98
2019-01-21T11:21:26.948Z,-3.85
2019-01-21T11:23:51.158Z,-3.69
2019-01-21T11:26:13.763Z,-3.42
2019-01-21T11:28:21.228Z,-4.17
2019-01-21T11:30:35.783Z,-3.96
2019-01-21T11:32:49.594Z,-3.69
2019-01-21T11:35:09.689Z,-3.93
2019-01-21T11:37:26.096Z,-3.83
2019-01-21T11:39:49.162Z,-3.78
2019-01-21T11:42:27.475Z,-3.70
2019-01-21T11:44:33.324Z,-3.07
2019-01-21T11:47:02.602Z,-3.08
2019-01-21T11:49:20.997Z,-2.85
2019-01-21T11:51:37.614Z,-2.44
2019-01-21T11:53:54.324Z,-2.31
2019-01-21T11:56:12.681Z,-1.81
2019-01-21T11:58:29.859Z,-1.49
2019-01-21T12:00:40.579Z,-0.84
2019-01-21T12:02:51.249Z,-1.30
2019-01-21T12:05:08.587Z,-1.72
2019-01-21T12:07:19.508Z,-1.61
2019-01-21T12:09:31.256Z,-2.05
2019-01-21T12:11:37.214Z,-2.35
2019-01-21T12:13:59.612Z,-2.20
2019-01-21T12:16:36.694Z,-2.43
2019-01-21T12:18:47.763Z,-2.22
2019-01-21T12:20:55.492Z,-2.39
2019-01-21T12:23:11.522Z,-1.69
2019-01-21T12:25:18.960Z,-2.03
2019-01-21T12:27:26.487Z,-2.33
2019-01-21T12:29:48.691Z,-2.26
2019-01-21T12:31:53.816Z,-2.31
2019-01-21T12:33:58.835Z,-2.18
2019-01-21T12:36:09.242Z,-2.15
2019-01-21T12:38:36.462Z,-1.82
2019-01-21T12:40:56.288Z,-2.09
2019-01-21T12:43:26.961Z,-2.11
2019-01-21T12:55:22.243Z,-1.72
2019-01-21T12:57:47.624Z,-1.50
2019-01-21T13:00:14.498Z,-1.16
2019-01-21T13:11:14.039Z,0.30
2019-01-21T13:13:37.198Z,0.16
2019-01-21T13:16:08.296Z,0.40
2019-01-21T13:18:38.136Z,-0.01
2019-01-21T13:20:49.084Z,-0.10
2019-01-21T13:22:59.720Z,-0.40
2019-01-21T13:25:33.366Z,-0.52
2019-01-21T13:28:14.871Z,-0.41
2019-01-21T13:30:22.453Z,-0.73
2019-01-21T13:32:59.183Z,-0.81
2019-01-21T13:35:27.800Z,-0.89
2019-01-21T13:37:36.635Z,-1.16
2019-01-21T13:39:52.538Z,-0.95
2019-01-21T13:42:06.847Z,-1.18
2019-01-21T13:44:23.687Z,-1.16
2019-01-21T13:46:37.029Z,-1.05
2019-01-21T13:48:47.991Z,-0.70
2019-01-21T13:51:07.928Z,-0.01
2019-01-21T13:53:24.553Z,0.20
2019-01-21T13:55:35.318Z,0.99
2019-01-21T13:58:05.791Z,0.53
2019-01-21T14:00:20.669Z,0.36
2019-01-21T14:02:31.085Z,-0.13
2019-01-21T14:04:45.688Z,-0.04
2019-01-21T14:07:21.339Z,0.37
2019-01-21T14:09:36.321Z,0.34
2019-01-21T14:11:58.910Z,0.28
2019-01-21T14:14:09.627Z,-0.16
2019-01-21T14:16:16.345Z,0.08
2019-01-21T14:18:39.325Z,-0.29
2019-01-21T14:20:48.831Z,-0.03
2019-01-21T14:22:57.508Z,-0.30
2019-01-21T14:25:20.560Z,-0.45
2019-01-21T14:27:43.282Z,-0.30
2019-01-21T14:30:00.313Z,-0.63
2019-01-21T14:32:26.531Z,-1.01
2019-01-21T14:34:36.776Z,-0.62
2019-01-21T14:37:02.433Z,-0.30
2019-01-21T14:39:28.677Z,-0.33
2019-01-21T14:41:42.656Z,-0.23
2019-01-21T14:43:53.859Z,-0.56
2019-01-21T14:46:10.291Z,-0.74
2019-01-21T14:48:14.852Z,-0.43
2019-01-21T14:50:25.537Z,-0.21
2019-01-21T14:52:39.349Z,-0.23
2019-01-21T14:54:47.856Z,-0.30
2019-01-21T14:56:52.377Z,-0.19
2019-01-21T14:59:09.011Z,0.01
2019-01-21T15:01:13.734Z,0.02
2019-01-21T15:03:50.448Z,-0.22
2019-01-21T15:05:54.853Z,-0.40
2019-01-21T15:08:00.274Z,-0.40
2019-01-21T15:10:29.271Z,-0.46
2019-01-21T15:12:41.252Z,-0.36
2019-01-21T15:14:45.998Z,-0.07
2019-01-21T15:17:02.082Z,-0.04
2019-01-21T15:19:09.742Z,0.34
2019-01-21T15:21:21.617Z,-0.08
2019-01-21T15:23:47.394Z,0.34
2019-01-21T15:25:57.930Z,0.49
2019-01-21T15:28:14.823Z,-0.19
2019-01-21T15:30:25.445Z,-0.04
2019-01-21T15:32:55.605Z,0.23
2019-01-21T15:35:12.051Z,-0.02
2019-01-21T15:37:23.046Z,-0.82
2019-01-21T15:39:37.440Z,-0.91
2019-01-21T15:41:42.250Z,-1.04
2019-01-21T15:43:49.085Z,-1.16
2019-01-21T15:46:02.809Z,-1.08
2019-01-21T15:48:10.277Z,-1.03
2019-01-21T15:50:23.795Z,-0.88
2019-01-21T15:52:34.648Z,-1.02
2019-01-21T15:55:06.437Z,-1.14
2019-01-21T15:57:29.173Z,-1.06
2019-01-21T15:59:36.836Z,-1.22
2019-01-21T16:01:59.680Z,-1.28
2019-01-21T16:04:07.208Z,-1.41
2019-01-21T16:06:37.153Z,-1.50
2019-01-21T16:08:49.468Z,-1.51
2019-01-21T16:10:59.923Z,-1.66
2019-01-21T16:13:17.018Z,-1.68
2019-01-21T16:15:36.390Z,-1.95
2019-01-21T16:20:36.999Z,-2.07
2019-01-21T16:22:50.790Z,-2.47
2019-01-21T16:25:07.542Z,-2.52
2019-01-21T16:27:33.145Z,-2.48
2019-01-21T16:29:43.391Z,-2.61
2019-01-21T16:31:47.190Z,-2.77
2019-01-21T16:34:09.455Z,-2.86
2019-01-21T16:36:25.299Z,-2.90
2019-01-21T16:38:30.481Z,-3.05
2019-01-21T16:40:53.000Z,-3.00
2019-01-21T16:42:53.703Z,-2.98
2019-01-21T16:45:00.565Z,-2.97
2019-01-21T16:47:01.183Z,-2.98
2019-01-21T16:49:01.928Z,-3.35
2019-01-21T16:51:02.634Z,-3.43
2019-01-21T16:53:03.641Z,-3.39
2019-01-21T16:55:06.697Z,-3.52
2019-01-21T16:57:08.358Z,-3.57
2019-01-21T16:59:09.560Z,-3.49
2019-01-21T17:01:10.300Z,-3.55
2019-01-21T17:03:11.269Z,-3.68
2019-01-21T17:05:12.044Z,-3.87
2019-01-21T17:07:12.693Z,-3.76
2019-01-21T17:09:13.537Z,-3.79
2019-01-21T17:11:14.226Z,-3.70
2019-01-21T17:13:14.862Z,-3.79
2019-01-21T17:15:16.047Z,-3.85
2019-01-21T17:17:17.845Z,-4.01
2019-01-21T17:19:19.698Z,-4.01
2019-01-21T17:21:23.516Z,-3.94
2019-01-21T17:23:24.621Z,-4.12
2019-01-21T17:25:26.127Z,-4.09
2019-01-21T17:27:26.791Z,-4.28
2019-01-21T17:29:27.496Z,-4.27
2019-01-21T17:31:28.236Z,-4.20
2019-01-21T17:33:28.940Z,-4.22
2019-01-21T17:35:32.060Z,-4.22
2019-01-21T17:37:32.772Z,-4.19
2019-01-21T17:39:33.420Z,-4.14
2019-01-21T17:41:34.057Z,-4.38
2019-01-21T17:43:35.108Z,-4.48
2019-01-21T17:45:36.070Z,-4.30
2019-01-21T17:47:36.951Z,-4.29
2019-01-21T17:49:37.604Z,-4.43
2019-01-21T17:51:38.505Z,-4.30
2019-01-21T17:53:39.473Z,-4.21
2019-01-21T17:55:40.398Z,-4.22
2019-01-21T17:57:41.398Z,-4.30
2019-01-21T17:59:42.361Z,-4.29
2019-01-21T18:01:43.326Z,-4.52
2019-01-21T18:03:44.211Z,-4.73
2019-01-21T18:05:44.922Z,-5.04
2019-01-21T18:07:45.671Z,-4.70
2019-01-21T18:09:46.660Z,-4.47
2019-01-21T18:11:47.656Z,-4.53
2019-01-21T18:13:48.611Z,-4.42
2019-01-21T18:15:49.237Z,-4.60
2019-01-21T18:17:49.912Z,-4.63
2019-01-21T18:19:51.606Z,-4.62
2019-01-21T18:21:52.228Z,-4.60
2019-01-21T18:23:53.988Z,-4.71
2019-01-21T18:25:54.958Z,-4.93
2019-01-21T18:27:55.899Z,-4.90
2019-01-21T18:29:56.539Z,-5.01
2019-01-21T18:31:57.203Z,-5.07
2019-01-21T18:33:57.899Z,-5.05
2019-01-21T18:35:58.535Z,-5.09
2019-01-21T18:37:59.859Z,-5.01
2019-01-21T18:40:00.476Z,-4.83
2019-01-21T18:42:01.444Z,-4.82
2019-01-21T18:44:02.363Z,-4.75
2019-01-21T18:46:03.396Z,-5.01
2019-01-21T18:48:04.050Z,-4.99
2019-01-21T18:50:07.735Z,-4.93
2019-01-21T18:52:08.389Z,-4.97
2019-01-21T18:54:09.015Z,-4.92
2019-01-21T18:56:09.980Z,-5.08
2019-01-21T18:58:10.917Z,-4.99
2019-01-21T19:00:20.631Z,-4.98
2019-01-21T19:02:21.298Z,-5.01
2019-01-21T19:04:21.927Z,-5.19
2019-01-21T19:06:22.746Z,-5.14
2019-01-21T19:08:29.370Z,-5.06
2019-01-21T19:10:31.031Z,-5.09
2019-01-21T19:12:31.760Z,-5.03
2019-01-21T19:14:32.417Z,-5.08
2019-01-21T19:16:33.121Z,-5.15
2019-01-21T19:18:35.809Z,-5.11
2019-01-21T19:20:36.839Z,-5.16
2019-01-21T19:22:37.796Z,-5.26
2019-01-21T19:24:38.748Z,-5.00
2019-01-21T19:26:39.579Z,-4.89
2019-01-21T19:28:40.530Z,-5.16
2019-01-21T19:30:41.194Z,-5.65
2019-01-21T19:32:42.119Z,-5.36
2019-01-21T19:34:42.768Z,-5.31
2019-01-21T19:36:43.758Z,-5.19
2019-01-21T19:38:44.468Z,-5.05
2019-01-21T19:40:45.392Z,-5.02
2019-01-21T19:42:47.182Z,-5.02
2019-01-21T19:44:47.967Z,-5.42
2019-01-21T19:46:48.891Z,-5.63
2019-01-21T19:48:49.765Z,-5.99
2019-01-21T19:50:50.848Z,-5.71
2019-01-21T19:52:51.651Z,-5.92
2019-01-21T19:54:52.378Z,-5.92
2019-01-21T19:56:53.098Z,-5.84
2019-01-21T19:58:54.039Z,-5.92
2019-01-21T20:00:54.722Z,-5.74
2019-01-21T20:02:55.396Z,-5.82
2019-01-21T20:04:56.376Z,-5.86
2019-01-21T20:06:57.016Z,-5.90
2019-01-21T20:08:58.148Z,-5.91
2019-01-21T20:10:59.836Z,-5.92
2019-01-21T20:13:00.925Z,-5.78
2019-01-21T20:15:02.673Z,-5.73
2019-01-21T20:17:04.391Z,-5.73
2019-01-21T20:19:06.144Z,-5.52
2019-01-21T20:21:07.163Z,-5.57
2019-01-21T20:23:08.030Z,-5.67
2019-01-21T20:25:10.444Z,-5.82
2019-01-21T20:27:11.364Z,-5.85
2019-01-21T20:29:11.987Z,-5.72
2019-01-21T20:31:12.632Z,-5.68
2019-01-21T20:33:13.319Z,-5.66
2019-01-21T20:35:15.088Z,-5.56
2019-01-21T20:37:15.777Z,-6.24
2019-01-21T20:39:16.464Z,-6.64
2019-01-21T20:41:17.304Z,-6.59
2019-01-21T20:43:18.506Z,-6.64
2019-01-21T20:45:19.346Z,-6.31
2019-01-21T20:47:20.072Z,-6.24
2019-01-21T20:49:22.039Z,-6.24
2019-01-21T20:51:23.945Z,-6.54
2019-01-21T20:53:24.825Z,-6.93
2019-01-21T20:55:25.715Z,-6.69
2019-01-21T20:57:26.354Z,-6.54
2019-01-21T20:59:27.322Z,-6.41
2019-01-21T21:01:28.048Z,-6.33
2019-01-21T21:03:29.794Z,-6.40
2019-01-21T21:05:30.488Z,-6.52
2019-01-21T21:07:31.124Z,-6.57
2019-01-21T21:09:32.153Z,-6.48
2019-01-21T21:11:32.810Z,-6.48
2019-01-21T21:13:33.875Z,-6.28
2019-01-21T21:15:34.624Z,-6.24
2019-01-21T21:17:35.536Z,-6.18
2019-01-21T21:19:36.219Z,-6.12
2019-01-21T21:21:36.904Z,-6.26
2019-01-21T21:23:37.819Z,-6.34
2019-01-21T21:25:38.767Z,-6.54
2019-01-21T21:27:39.886Z,-6.36
2019-01-21T21:29:40.842Z,-6.28
2019-01-21T21:31:41.527Z,-6.43
2019-01-21T21:33:43.134Z,-6.32
2019-01-21T21:35:44.273Z,-6.30
2019-01-21T21:37:45.212Z,-6.52
2019-01-21T21:39:45.945Z,-6.57
2019-01-21T21:41:47.226Z,-6.64
2019-01-21T21:43:47.908Z,-7.09
2019-01-21T21:45:48.866Z,-6.87
2019-01-21T21:47:49.535Z,-6.60
2019-01-21T21:49:50.318Z,-6.58
2019-01-21T21:51:51.261Z,-6.78
2019-01-21T21:53:52.159Z,-6.72
2019-01-21T21:55:52.931Z,-6.67
2019-01-21T21:57:53.913Z,-6.67
2019-01-21T21:59:54.863Z,-6.75
2019-01-21T22:01:55.791Z,-6.73
2019-01-21T22:03:56.532Z,-6.67
2019-01-21T22:05:57.217Z,-6.90
2019-01-21T22:07:58.233Z,-6.85
2019-01-21T22:09:59.195Z,-6.78
2019-01-21T22:12:00.086Z,-6.66
2019-01-21T22:14:00.993Z,-6.65
2019-01-21T22:16:01.742Z,-6.60
2019-01-21T22:18:02.828Z,-6.66
2019-01-21T22:20:09.701Z,-6.61
2019-01-21T22:22:10.385Z,-6.58
2019-01-21T22:24:11.304Z,-6.58
2019-01-21T22:26:12.183Z,-6.66
2019-01-21T22:28:13.175Z,-6.78
2019-01-21T22:30:19.267Z,-6.79
2019-01-21T22:32:19.936Z,-6.81
2019-01-21T22:34:20.595Z,-6.65
2019-01-21T22:36:21.530Z,-6.85
2019-01-21T22:38:22.491Z,-7.07
2019-01-21T22:40:23.674Z,-6.89
2019-01-21T22:42:24.666Z,-6.82
2019-01-21T22:44:25.338Z,-6.98
2019-01-21T22:46:25.992Z,-6.85
2019-01-21T22:48:26.748Z,-6.78
2019-01-21T22:50:27.701Z,-6.87
2019-01-21T22:52:28.783Z,-6.98
2019-01-21T22:54:29.740Z,-6.94
2019-01-21T22:56:32.509Z,-6.83
2019-01-21T22:58:33.483Z,-6.89
2019-01-21T23:00:40.128Z,-6.67
2019-01-21T23:02:40.816Z,-6.76
2019-01-21T23:04:41.816Z,-6.64
2019-01-21T23:06:42.832Z,-6.74
2019-01-21T23:08:43.530Z,-6.74
2019-01-21T23:10:44.183Z,-6.92
2019-01-21T23:12:44.895Z,-7.02
2019-01-21T23:14:45.759Z,-7.01
2019-01-21T23:16:46.470Z,-6.99
2019-01-21T23:18:47.420Z,-6.86
2019-01-21T23:20:48.115Z,-7.00
2019-01-21T23:22:49.468Z,-7.03
2019-01-21T23:24:50.188Z,-7.15
2019-01-21T23:26:50.821Z,-7.15
2019-01-21T23:28:51.730Z,-6.97
2019-01-21T23:30:52.389Z,-6.99
2019-01-21T23:32:53.330Z,-6.99
2019-01-21T23:34:54.329Z,-7.07
2019-01-21T23:36:55.010Z,-7.04
2019-01-21T23:38:55.734Z,-7.00
2019-01-21T23:40:56.827Z,-7.01
2019-01-21T23:42:57.490Z,-6.97
2019-01-21T23:44:58.150Z,-7.02
2019-01-21T23:46:58.901Z,-6.91
2019-01-21T23:48:59.934Z,-7.06
2019-01-21T23:51:01.086Z,-7.25
2019-01-21T23:53:01.783Z,-7.30
2019-01-21T23:55:04.582Z,-7.48
2019-01-21T23:57:05.487Z,-7.29
2019-01-21T23:59:06.452Z,-7.17
